createdAt,value
2016-10-19T00:00:22.879Z,0
2016-10-19T00:01:22.858Z,0
2016-10-19T00:02:22.834Z,0
2016-10-19T00:03:22.509Z,0
2016-10-19T00:04:22.499Z,0
2016-10-19T00:05:22.794Z,0
2016-10-19T00:06:22.773Z,0
2016-10-19T00:07:22.751Z,0
2016-10-19T00:08:22.755Z,0
2016-10-19T00:09:22.414Z,0
2016-10-19T00:10:22.729Z,0
2016-10-19T00:11:22.697Z,0
2016-10-19T00:12:22.686Z,0
2016-10-19T00:13:22.341Z,0
2016-10-19T00:14:22.644Z,0
2016-10-19T00:15:22.673Z,0
2016-10-19T00:16:22.616Z,0
2016-10-19T00:17:21.966Z,0
2016-10-19T00:18:22.585Z,0
2016-10-19T00:19:22.253Z,0
2016-10-19T00:20:22.550Z,0
2016-10-19T00:21:22.518Z,0
2016-10-19T00:22:21.883Z,0
2016-10-19T00:23:22.496Z,0
2016-10-19T00:24:22.169Z,0
2016-10-19T00:25:22.466Z,0
2016-10-19T00:26:22.461Z,0
2016-10-19T00:27:22.430Z,0
2016-10-19T00:28:22.430Z,0
2016-10-19T00:29:22.406Z,0
2016-10-19T00:30:22.387Z,0
2016-10-19T00:31:22.370Z,0
2016-10-19T00:32:22.074Z,0
2016-10-19T00:33:22.337Z,0
2016-10-19T00:34:22.310Z,0
2016-10-19T00:35:22.309Z,0
2016-10-19T00:36:21.961Z,0
2016-10-19T00:37:22.268Z,0
2016-10-19T00:38:22.251Z,0
2016-10-19T00:39:21.926Z,0
2016-10-19T00:40:21.904Z,0
2016-10-19T00:41:21.887Z,0
2016-10-19T00:42:21.866Z,0
2016-10-19T00:43:21.859Z,0
2016-10-19T00:44:21.835Z,0
2016-10-19T00:45:21.835Z,0
2016-10-19T00:46:22.118Z,0
2016-10-19T00:47:21.473Z,0
2016-10-19T00:48:22.098Z,0
2016-10-19T00:49:22.113Z,0
2016-10-19T00:50:22.049Z,0
2016-10-19T00:51:22.044Z,0
2016-10-19T00:52:22.019Z,0
2016-10-19T00:53:22.047Z,0
2016-10-19T00:54:22.009Z,0
2016-10-19T00:55:21.979Z,0
2016-10-19T00:56:21.954Z,0
2016-10-19T00:57:21.627Z,0
2016-10-19T00:58:21.609Z,0
2016-10-19T00:59:21.913Z,0
2016-10-19T01:00:21.889Z,0
2016-10-19T01:01:21.872Z,0
2016-10-19T01:02:21.862Z,0
2016-10-19T01:03:21.857Z,0
2016-10-19T01:04:21.519Z,0
2016-10-19T01:05:21.500Z,0
2016-10-19T01:06:21.515Z,0
2016-10-19T01:07:21.774Z,0
2016-10-19T01:08:21.763Z,0
2016-10-19T01:09:21.431Z,0
2016-10-19T01:10:21.416Z,0
2016-10-19T01:11:21.714Z,0
2016-10-19T01:12:21.686Z,0
2016-10-19T01:13:21.678Z,0
2016-10-19T01:14:21.350Z,0
2016-10-19T01:15:21.644Z,0
2016-10-19T01:16:21.307Z,0
2016-10-19T01:17:21.293Z,0
2016-10-19T01:18:21.599Z,0
2016-10-19T01:19:21.268Z,0
2016-10-19T01:20:20.938Z,0
2016-10-19T01:21:21.549Z,0
2016-10-19T01:22:21.533Z,0
2016-10-19T01:23:21.521Z,0
2016-10-19T01:24:21.183Z,0
2016-10-19T01:25:21.486Z,0
2016-10-19T01:26:21.151Z,0
2016-10-19T01:27:21.450Z,0
2016-10-19T01:28:21.431Z,0
2016-10-19T01:29:21.101Z,0
2016-10-19T01:30:21.408Z,0
2016-10-19T01:31:21.383Z,0
2016-10-19T01:32:21.406Z,0
2016-10-19T01:33:21.367Z,0
2016-10-19T01:34:21.339Z,0
2016-10-19T01:35:21.324Z,0
2016-10-19T01:36:20.989Z,0
2016-10-19T01:37:21.294Z,0
2016-10-19T01:38:21.304Z,0
2016-10-19T01:39:21.255Z,0
2016-10-19T01:40:20.920Z,0
2016-10-19T01:41:21.223Z,0
2016-10-19T01:42:21.210Z,0
2016-10-19T01:43:21.224Z,0
2016-10-19T01:44:20.889Z,0
2016-10-19T01:45:20.844Z,0
2016-10-19T01:46:20.829Z,0
2016-10-19T01:47:21.117Z,0
2016-10-19T01:48:21.098Z,0
2016-10-19T01:49:21.096Z,0
2016-10-19T01:50:20.762Z,0
2016-10-19T01:51:21.051Z,0
2016-10-19T01:52:21.046Z,0
2016-10-19T01:53:21.028Z,0
2016-10-19T01:54:21.009Z,0
2016-10-19T01:55:20.675Z,0
2016-10-19T01:56:20.975Z,0
2016-10-19T01:57:20.649Z,0
2016-10-19T01:58:20.946Z,0
2016-10-19T01:59:20.615Z,0
2016-10-19T02:00:20.587Z,0
2016-10-19T02:01:20.896Z,0
2016-10-19T02:02:20.871Z,0
2016-10-19T02:03:20.870Z,0
2016-10-19T02:04:20.846Z,0
2016-10-19T02:05:20.823Z,0
2016-10-19T02:06:20.810Z,0
2016-10-19T02:07:20.471Z,0
2016-10-19T02:08:20.456Z,0
2016-10-19T02:09:20.760Z,0
2016-10-19T02:10:20.117Z,0
2016-10-19T02:11:20.738Z,0
2016-10-19T02:12:20.724Z,0
2016-10-19T02:13:20.697Z,0
2016-10-19T02:14:20.684Z,0
2016-10-19T02:15:20.359Z,0
2016-10-19T02:16:20.339Z,0
2016-10-19T02:17:20.622Z,0
2016-10-19T02:18:20.621Z,0
2016-10-19T02:19:20.602Z,0
2016-10-19T02:20:20.259Z,0
2016-10-19T02:21:20.567Z,0
2016-10-19T02:22:19.920Z,0
2016-10-19T02:23:20.541Z,0
2016-10-19T02:24:20.202Z,0
2016-10-19T02:25:20.507Z,0
2016-10-19T02:26:20.483Z,0
2016-10-19T02:27:20.463Z,0
2016-10-19T02:28:20.132Z,0
2016-10-19T02:29:20.116Z,0
2016-10-19T02:30:20.426Z,0
2016-10-19T02:31:20.393Z,0
2016-10-19T02:32:20.383Z,0
2016-10-19T02:33:20.052Z,0
2016-10-19T02:34:20.350Z,0
2016-10-19T02:35:20.056Z,0
2016-10-19T02:36:20.326Z,0
2016-10-19T02:37:19.987Z,0
2016-10-19T02:38:20.290Z,0
2016-10-19T02:39:19.961Z,0
2016-10-19T02:40:20.252Z,0
2016-10-19T02:41:20.243Z,0
2016-10-19T02:42:20.220Z,0
2016-10-19T02:43:20.215Z,0
2016-10-19T02:44:20.185Z,0
2016-10-19T02:45:20.170Z,0
2016-10-19T02:46:20.153Z,0
2016-10-19T02:47:19.826Z,0
2016-10-19T02:48:20.117Z,0
2016-10-19T02:49:20.103Z,0
2016-10-19T02:50:20.087Z,0
2016-10-19T02:51:20.073Z,0
2016-10-19T02:52:19.736Z,0
2016-10-19T02:53:20.069Z,0
2016-10-19T02:54:20.026Z,0
2016-10-19T02:55:20.009Z,0
2016-10-19T02:56:19.993Z,0
2016-10-19T02:57:19.664Z,0
2016-10-19T02:58:19.675Z,0
2016-10-19T02:59:19.312Z,0
2016-10-19T03:00:19.925Z,0
2016-10-19T03:01:19.594Z,0
2016-10-19T03:02:19.894Z,0
2016-10-19T03:03:19.884Z,0
2016-10-19T03:04:19.850Z,0
2016-10-19T03:05:19.847Z,0
2016-10-19T03:06:19.826Z,0
2016-10-19T03:07:19.807Z,0
2016-10-19T03:08:19.477Z,0
2016-10-19T03:09:19.780Z,0
2016-10-19T03:10:19.447Z,0
2016-10-19T03:11:19.742Z,0
2016-10-19T03:12:19.727Z,0
2016-10-19T03:13:19.710Z,0
2016-10-19T03:14:19.391Z,0
2016-10-19T03:15:19.676Z,0
2016-10-19T03:16:19.665Z,0
2016-10-19T03:17:19.645Z,0
2016-10-19T03:18:19.668Z,0
2016-10-19T03:19:19.621Z,0
2016-10-19T03:20:19.592Z,0
2016-10-19T03:21:19.577Z,0
2016-10-19T03:22:19.246Z,0
2016-10-19T03:23:19.548Z,0
2016-10-19T03:24:19.520Z,0
2016-10-19T03:25:19.512Z,0
2016-10-19T03:26:19.496Z,0
2016-10-19T03:27:19.176Z,0
2016-10-19T03:28:19.463Z,0
2016-10-19T03:29:19.444Z,0
2016-10-19T03:30:19.434Z,0
2016-10-19T03:31:19.105Z,0
2016-10-19T03:32:19.397Z,0
2016-10-19T03:33:19.382Z,0
2016-10-19T03:34:19.051Z,0
2016-10-19T03:35:19.391Z,0
2016-10-19T03:36:19.338Z,0
2016-10-19T03:37:19.313Z,0
2016-10-19T03:38:18.983Z,0
2016-10-19T03:39:18.662Z,0
2016-10-19T03:40:19.265Z,0
2016-10-19T03:41:19.258Z,0
2016-10-19T03:42:18.923Z,0
2016-10-19T03:43:19.214Z,0
2016-10-19T03:44:19.195Z,0
2016-10-19T03:45:19.174Z,0
2016-10-19T03:46:18.854Z,0
2016-10-19T03:47:18.844Z,0
2016-10-19T03:48:19.136Z,0
2016-10-19T03:49:18.803Z,0
2016-10-19T03:50:18.486Z,0
2016-10-19T03:51:19.091Z,0
2016-10-19T03:52:18.757Z,0
2016-10-19T03:53:19.082Z,0
2016-10-19T03:54:19.047Z,0
2016-10-19T03:55:18.702Z,0
2016-10-19T03:56:18.699Z,0
2016-10-19T03:57:18.986Z,0
2016-10-19T03:58:18.662Z,0
2016-10-19T03:59:18.952Z,0
2016-10-19T04:00:18.627Z,0
2016-10-19T04:01:18.930Z,0
2016-10-19T04:02:18.598Z,0
2016-10-19T04:03:18.887Z,0
2016-10-19T04:04:18.562Z,0
2016-10-19T04:05:18.855Z,0
2016-10-19T04:06:18.846Z,0
2016-10-19T04:07:18.824Z,0
2016-10-19T04:08:18.811Z,0
2016-10-19T04:09:18.476Z,0
2016-10-19T04:10:18.781Z,0
2016-10-19T04:11:18.754Z,0
2016-10-19T04:12:18.424Z,0
2016-10-19T04:13:18.725Z,0
2016-10-19T04:14:18.706Z,0
2016-10-19T04:15:18.375Z,0
2016-10-19T04:16:18.666Z,0
2016-10-19T04:17:18.346Z,0
2016-10-19T04:18:18.641Z,0
2016-10-19T04:19:18.633Z,0
2016-10-19T04:20:18.607Z,0
2016-10-19T04:21:18.580Z,0
2016-10-19T04:22:18.259Z,0
2016-10-19T04:23:18.246Z,0
2016-10-19T04:24:18.547Z,0
2016-10-19T04:25:18.526Z,0
2016-10-19T04:26:18.518Z,0
2016-10-19T04:27:18.175Z,0
2016-10-19T04:28:18.480Z,0
2016-10-19T04:29:18.140Z,0
2016-10-19T04:30:18.446Z,0
2016-10-19T04:31:18.452Z,0
2016-10-19T04:32:18.421Z,0
2016-10-19T04:33:18.110Z,0
2016-10-19T04:34:18.387Z,0
2016-10-19T04:35:18.367Z,0
2016-10-19T04:36:18.028Z,0
2016-10-19T04:37:18.331Z,0
2016-10-19T04:38:18.312Z,0
2016-10-19T04:39:17.984Z,0
2016-10-19T04:40:18.279Z,0
2016-10-19T04:41:18.260Z,0
2016-10-19T04:42:18.249Z,0
2016-10-19T04:43:18.234Z,0
2016-10-19T04:44:17.897Z,0
2016-10-19T04:45:17.877Z,0
2016-10-19T04:46:18.188Z,0
2016-10-19T04:47:18.164Z,0
2016-10-19T04:48:18.148Z,0
2016-10-19T04:49:18.129Z,0
2016-10-19T04:50:17.837Z,0
2016-10-19T04:51:17.804Z,0
2016-10-19T04:52:18.085Z,0
2016-10-19T04:53:18.102Z,0
2016-10-19T04:54:18.059Z,0
2016-10-19T04:55:17.729Z,0
2016-10-19T04:56:18.052Z,0
2016-10-19T04:57:17.689Z,0
2016-10-19T04:58:17.987Z,0
2016-10-19T04:59:17.971Z,0
2016-10-19T05:00:17.958Z,0
2016-10-19T05:01:17.624Z,0
2016-10-19T05:02:17.923Z,0
2016-10-19T05:03:17.902Z,0
2016-10-19T05:04:17.887Z,0
2016-10-19T05:05:17.881Z,0
2016-10-19T05:06:17.568Z,0
2016-10-19T05:07:17.843Z,0
2016-10-19T05:08:17.862Z,0
2016-10-19T05:09:17.497Z,0
2016-10-19T05:10:17.795Z,0
2016-10-19T05:11:17.776Z,0
2016-10-19T05:12:17.766Z,0
2016-10-19T05:13:17.742Z,0
2016-10-19T05:14:17.737Z,0
2016-10-19T05:15:17.397Z,0
2016-10-19T05:16:17.692Z,0
2016-10-19T05:17:17.735Z,0
2016-10-19T05:18:17.354Z,0
2016-10-19T05:19:17.645Z,0
2016-10-19T05:20:17.655Z,0
2016-10-19T05:21:17.324Z,0
2016-10-19T05:22:17.616Z,0
2016-10-19T05:23:17.268Z,0
2016-10-19T05:24:17.569Z,0
2016-10-19T05:25:17.549Z,0
2016-10-19T05:26:17.557Z,0
2016-10-19T05:27:17.551Z,0
2016-10-19T05:28:17.511Z,0
2016-10-19T05:29:17.204Z,0
2016-10-19T05:30:17.467Z,0
2016-10-19T05:31:17.486Z,0
2016-10-19T05:32:17.120Z,0
2016-10-19T05:33:17.425Z,0
2016-10-19T05:34:17.407Z,0
2016-10-19T05:35:17.385Z,0
2016-10-19T05:36:17.066Z,0
2016-10-19T05:37:17.364Z,0
2016-10-19T05:38:17.343Z,0
2016-10-19T05:39:17.020Z,0
2016-10-19T05:40:17.029Z,0
2016-10-19T05:41:17.298Z,0
2016-10-19T05:42:16.962Z,0
2016-10-19T05:43:17.258Z,0
2016-10-19T05:44:16.933Z,0
2016-10-19T05:45:17.228Z,0
2016-10-19T05:46:17.208Z,0
2016-10-19T05:47:17.194Z,0
2016-10-19T05:48:16.853Z,0
2016-10-19T05:49:17.172Z,0
2016-10-19T05:50:16.829Z,0
2016-10-19T05:51:17.130Z,0
2016-10-19T05:52:16.792Z,0
2016-10-19T05:53:17.091Z,0
2016-10-19T05:54:17.079Z,0
2016-10-19T05:55:17.079Z,0
2016-10-19T05:56:16.735Z,0
2016-10-19T05:57:17.026Z,0
2016-10-19T05:58:17.021Z,0
2016-10-19T05:59:17.000Z,0
2016-10-19T06:00:16.674Z,0
2016-10-19T06:01:16.975Z,0
2016-10-19T06:02:16.948Z,0
2016-10-19T06:03:16.934Z,0
2016-10-19T06:04:16.926Z,0
2016-10-19T06:05:16.592Z,0
2016-10-19T06:06:16.575Z,0
2016-10-19T06:07:16.866Z,0
2016-10-19T06:08:16.855Z,0
2016-10-19T06:09:16.845Z,0
2016-10-19T06:10:16.822Z,0
2016-10-19T06:11:16.817Z,0
2016-10-19T06:12:16.796Z,0
2016-10-19T06:13:16.787Z,0
2016-10-19T06:14:16.769Z,0
2016-10-19T06:15:16.432Z,0
2016-10-19T06:16:16.734Z,0
2016-10-19T06:17:16.718Z,0
2016-10-19T06:18:16.393Z,0
2016-10-19T06:19:15.737Z,0
2016-10-19T06:20:16.664Z,0
2016-10-19T06:21:16.660Z,0
2016-10-19T06:22:16.008Z,0
2016-10-19T06:23:16.611Z,0
2016-10-19T06:24:16.600Z,0
2016-10-19T06:25:16.592Z,0
2016-10-19T06:26:16.576Z,0
2016-10-19T06:27:16.236Z,4
2016-10-19T06:28:16.224Z,4
2016-10-19T06:29:16.216Z,4
2016-10-19T06:30:16.506Z,0
2016-10-19T06:31:15.855Z,4
2016-10-19T06:32:16.156Z,4
2016-10-19T06:33:16.456Z,4
2016-10-19T06:34:16.431Z,4
2016-10-19T06:35:16.148Z,4
2016-10-19T06:36:16.411Z,8
2016-10-19T06:37:16.075Z,8
2016-10-19T06:38:16.374Z,8
2016-10-19T06:39:16.361Z,8
2016-10-19T06:40:16.340Z,8
2016-10-19T06:41:16.011Z,8
2016-10-19T06:42:15.989Z,12
2016-10-19T06:43:16.299Z,12
2016-10-19T06:44:16.285Z,16
2016-10-19T06:45:16.265Z,12
2016-10-19T06:46:16.252Z,16
2016-10-19T06:47:16.227Z,16
2016-10-19T06:48:15.902Z,16
2016-10-19T06:49:15.893Z,20
2016-10-19T06:50:15.871Z,16
2016-10-19T06:51:15.530Z,20
2016-10-19T06:52:15.843Z,20
2016-10-19T06:53:15.826Z,20
2016-10-19T06:54:15.808Z,20
2016-10-19T06:55:16.107Z,20
2016-10-19T06:56:15.770Z,20
2016-10-19T06:57:16.083Z,20
2016-10-19T06:58:15.739Z,20
2016-10-19T06:59:15.722Z,20
2016-10-19T07:00:16.040Z,20
2016-10-19T07:01:15.690Z,20
2016-10-19T07:02:15.995Z,20
2016-10-19T07:03:15.981Z,20
2016-10-19T07:04:15.996Z,20
2016-10-19T07:05:15.943Z,20
2016-10-19T07:06:15.616Z,20
2016-10-19T07:07:15.921Z,20
2016-10-19T07:08:15.895Z,20
2016-10-19T07:09:15.874Z,20
2016-10-19T07:10:15.871Z,24
2016-10-19T07:11:15.532Z,20
2016-10-19T07:12:15.202Z,24
2016-10-19T07:13:15.496Z,20
2016-10-19T07:14:15.801Z,24
2016-10-19T07:15:15.777Z,24
2016-10-19T07:16:15.454Z,20
2016-10-19T07:17:15.764Z,20
2016-10-19T07:18:15.741Z,20
2016-10-19T07:19:15.732Z,20
2016-10-19T07:20:15.699Z,20
2016-10-19T07:21:15.684Z,20
2016-10-19T07:22:15.048Z,20
2016-10-19T07:23:15.340Z,20
2016-10-19T07:24:15.640Z,20
2016-10-19T07:25:15.004Z,20
2016-10-19T07:26:15.622Z,20
2016-10-19T07:27:14.652Z,20
2016-10-19T07:28:15.257Z,20
2016-10-19T07:29:15.247Z,20
2016-10-19T07:30:15.260Z,20
2016-10-19T07:31:15.207Z,20
2016-10-19T07:32:15.192Z,20
2016-10-19T07:33:15.502Z,20
2016-10-19T07:34:15.157Z,20
2016-10-19T07:35:15.486Z,20
2016-10-19T07:36:15.441Z,20
2016-10-19T07:37:15.438Z,20
2016-10-19T07:38:15.402Z,20
2016-10-19T07:39:15.407Z,20
2016-10-19T07:40:15.383Z,20
2016-10-19T07:41:15.370Z,20
2016-10-19T07:42:15.036Z,20
2016-10-19T07:43:15.016Z,20
2016-10-19T07:44:15.315Z,20
2016-10-19T07:45:15.344Z,20
2016-10-19T07:46:14.969Z,24
2016-10-19T07:47:14.951Z,24
2016-10-19T07:48:15.268Z,20
2016-10-19T07:49:15.243Z,20
2016-10-19T07:50:14.916Z,24
2016-10-19T07:51:14.892Z,20
2016-10-19T07:52:15.198Z,20
2016-10-19T07:53:15.185Z,24
2016-10-19T07:54:15.200Z,20
2016-10-19T07:55:15.159Z,24
2016-10-19T07:56:15.129Z,24
2016-10-19T07:57:14.793Z,24
2016-10-19T07:58:15.098Z,24
2016-10-19T07:59:15.089Z,24
2016-10-19T08:00:14.753Z,20
2016-10-19T08:01:14.729Z,20
2016-10-19T08:02:14.397Z,20
2016-10-19T08:03:15.016Z,20
2016-10-19T08:04:14.686Z,20
2016-10-19T08:05:14.663Z,20
2016-10-19T08:06:14.978Z,24
2016-10-19T08:07:14.963Z,24
2016-10-19T08:08:14.647Z,24
2016-10-19T08:09:14.960Z,24
2016-10-19T08:10:14.899Z,24
2016-10-19T08:11:14.881Z,24
2016-10-19T08:12:14.872Z,24
2016-10-19T08:13:14.536Z,24
2016-10-19T08:14:14.833Z,24
2016-10-19T08:15:14.822Z,24
2016-10-19T08:16:14.499Z,20
2016-10-19T08:17:14.486Z,20
2016-10-19T08:18:14.770Z,24
2016-10-19T08:19:14.759Z,24
2016-10-19T08:20:14.741Z,20
2016-10-19T08:21:14.730Z,24
2016-10-19T08:22:14.711Z,20
2016-10-19T08:23:14.378Z,24
2016-10-19T08:24:14.688Z,24
2016-10-19T08:25:14.671Z,20
2016-10-19T08:26:14.656Z,20
2016-10-19T08:27:14.643Z,20
2016-10-19T08:28:14.611Z,20
2016-10-19T08:29:14.603Z,20
2016-10-19T08:30:13.963Z,20
2016-10-19T08:31:14.571Z,20
2016-10-19T08:32:14.238Z,20
2016-10-19T08:33:14.218Z,20
2016-10-19T08:34:14.513Z,20
2016-10-19T08:35:14.190Z,24
2016-10-19T08:36:14.489Z,24
2016-10-19T08:37:14.470Z,24
2016-10-19T08:38:14.461Z,24
2016-10-19T08:39:14.435Z,24
2016-10-19T08:40:14.423Z,24
2016-10-19T08:41:14.402Z,24
2016-10-19T08:42:14.081Z,20
2016-10-19T08:43:14.390Z,20
2016-10-19T08:44:14.044Z,20
2016-10-19T08:45:14.033Z,20
2016-10-19T08:46:14.334Z,20
2016-10-19T08:47:14.308Z,20
2016-10-19T08:48:13.973Z,20
2016-10-19T08:49:13.968Z,24
2016-10-19T08:50:14.277Z,20
2016-10-19T08:51:13.941Z,20
2016-10-19T08:52:13.614Z,20
2016-10-19T08:53:14.220Z,20
2016-10-19T08:54:13.889Z,24
2016-10-19T08:55:14.191Z,24
2016-10-19T08:56:13.857Z,24
2016-10-19T08:57:13.837Z,24
2016-10-19T08:58:13.822Z,20
2016-10-19T08:59:14.121Z,24
2016-10-19T09:00:13.786Z,24
2016-10-19T09:01:14.089Z,24
2016-10-19T09:02:13.467Z,24
2016-10-19T09:03:14.052Z,24
2016-10-19T09:04:14.034Z,24
2016-10-19T09:05:13.717Z,24
2016-10-19T09:06:13.698Z,24
2016-10-19T09:07:14.001Z,24
2016-10-19T09:08:13.977Z,24
2016-10-19T09:09:14.305Z,24
2016-10-19T09:10:13.628Z,20
2016-10-19T09:11:13.927Z,20
2016-10-19T09:12:13.910Z,20
2016-10-19T09:13:13.268Z,20
2016-10-19T09:14:13.252Z,20
2016-10-19T09:15:13.875Z,20
2016-10-19T09:16:13.215Z,20
2016-10-19T09:17:13.868Z,20
2016-10-19T09:18:13.503Z,20
2016-10-19T09:19:13.797Z,20
2016-10-19T09:20:13.774Z,20
2016-10-19T09:21:13.441Z,20
2016-10-19T09:22:13.434Z,20
2016-10-19T09:23:13.416Z,20
2016-10-19T09:24:13.089Z,20
2016-10-19T09:25:13.704Z,20
2016-10-19T09:26:13.362Z,20
2016-10-19T09:27:13.669Z,20
2016-10-19T09:28:13.650Z,20
2016-10-19T09:29:13.321Z,20
2016-10-19T09:30:13.620Z,20
2016-10-19T09:31:13.608Z,20
2016-10-19T09:32:13.586Z,20
2016-10-19T09:33:13.574Z,20
2016-10-19T09:34:13.571Z,20
2016-10-19T09:35:13.532Z,24
2016-10-19T09:36:13.523Z,24
2016-10-19T09:37:13.204Z,20
2016-10-19T09:38:13.182Z,24
2016-10-19T09:39:13.482Z,24
2016-10-19T09:40:13.455Z,24
2016-10-19T09:41:13.121Z,24
2016-10-19T09:42:13.433Z,20
2016-10-19T09:43:13.424Z,24
2016-10-19T09:44:13.080Z,24
2016-10-19T09:45:13.064Z,24
2016-10-19T09:46:13.371Z,24
2016-10-19T09:47:13.353Z,24
2016-10-19T09:48:13.028Z,20
2016-10-19T09:49:13.326Z,20
2016-10-19T09:50:13.302Z,20
2016-10-19T09:51:13.286Z,24
2016-10-19T09:52:12.951Z,24
2016-10-19T09:53:13.260Z,20
2016-10-19T09:54:13.246Z,24
2016-10-19T09:55:13.217Z,24
2016-10-19T09:56:12.888Z,24
2016-10-19T09:57:13.191Z,24
2016-10-19T09:58:12.865Z,24
2016-10-19T09:59:13.165Z,24
2016-10-19T10:00:13.149Z,24
2016-10-19T10:01:12.813Z,24
2016-10-19T10:02:13.112Z,20
2016-10-19T10:03:12.777Z,24
2016-10-19T10:04:12.767Z,20
2016-10-19T10:05:13.068Z,24
2016-10-19T10:06:12.727Z,20
2016-10-19T10:07:13.046Z,24
2016-10-19T10:08:13.026Z,24
2016-10-19T10:09:13.020Z,24
2016-10-19T10:10:12.995Z,24
2016-10-19T10:11:12.979Z,24
2016-10-19T10:12:12.640Z,24
2016-10-19T10:13:12.943Z,24
2016-10-19T10:14:12.636Z,24
2016-10-19T10:15:12.590Z,24
2016-10-19T10:16:12.877Z,24
2016-10-19T10:17:12.582Z,24
2016-10-19T10:18:12.547Z,24
2016-10-19T10:19:12.835Z,24
2016-10-19T10:20:12.544Z,24
2016-10-19T10:21:12.511Z,24
2016-10-19T10:22:12.801Z,24
2016-10-19T10:23:12.796Z,20
2016-10-19T10:24:12.455Z,24
2016-10-19T10:25:12.469Z,24
2016-10-19T10:26:12.735Z,20
2016-10-19T10:27:12.715Z,20
2016-10-19T10:28:12.692Z,24
2016-10-19T10:29:12.356Z,24
2016-10-19T10:30:12.675Z,24
2016-10-19T10:31:12.634Z,24
2016-10-19T10:32:12.632Z,24
2016-10-19T10:33:12.296Z,24
2016-10-19T10:34:12.610Z,20
2016-10-19T10:35:12.276Z,24
2016-10-19T10:36:11.950Z,24
2016-10-19T10:37:12.557Z,28
2016-10-19T10:38:12.536Z,24
2016-10-19T10:39:12.237Z,24
2016-10-19T10:40:12.238Z,20
2016-10-19T10:41:12.491Z,24
2016-10-19T10:42:12.499Z,24
2016-10-19T10:43:12.550Z,24
2016-10-19T10:44:12.130Z,24
2016-10-19T10:45:12.112Z,24
2016-10-19T10:46:12.131Z,20
2016-10-19T10:47:12.105Z,20
2016-10-19T10:48:12.106Z,20
2016-10-19T10:49:12.374Z,20
2016-10-19T10:50:12.361Z,24
2016-10-19T10:51:12.036Z,24
2016-10-19T10:52:12.325Z,24
2016-10-19T10:53:11.991Z,20
2016-10-19T10:54:11.656Z,20
2016-10-19T10:55:12.267Z,20
2016-10-19T10:56:12.256Z,20
2016-10-19T10:57:11.605Z,20
2016-10-19T10:58:12.235Z,20
2016-10-19T10:59:11.250Z,20
2016-10-19T11:00:11.564Z,24
2016-10-19T11:01:12.180Z,24
2016-10-19T11:02:12.158Z,24
2016-10-19T11:03:11.865Z,24
2016-10-19T11:04:12.128Z,24
2016-10-19T11:05:12.138Z,20
2016-10-19T11:06:12.108Z,24
2016-10-19T11:07:11.762Z,24
2016-10-19T11:08:11.736Z,24
2016-10-19T11:09:12.038Z,24
2016-10-19T11:10:12.025Z,24
2016-10-19T11:11:12.018Z,24
2016-10-19T11:12:11.993Z,24
2016-10-19T11:13:11.667Z,28
2016-10-19T11:14:11.968Z,24
2016-10-19T11:15:11.627Z,24
2016-10-19T11:16:11.924Z,24
2016-10-19T11:17:11.287Z,24
2016-10-19T11:18:11.903Z,28
2016-10-19T11:19:11.891Z,24
2016-10-19T11:20:11.551Z,24
2016-10-19T11:21:11.232Z,28
2016-10-19T11:22:11.843Z,24
2016-10-19T11:23:11.821Z,28
2016-10-19T11:24:11.819Z,32
2016-10-19T11:25:11.472Z,32
2016-10-19T11:26:11.463Z,32
2016-10-19T11:27:11.451Z,36
2016-10-19T11:28:11.752Z,32
2016-10-19T11:29:11.729Z,32
2016-10-19T11:30:11.909Z,32
2016-10-19T11:31:11.707Z,32
2016-10-19T11:32:11.672Z,32
2016-10-19T11:33:11.671Z,32
2016-10-19T11:34:11.652Z,28
2016-10-19T11:35:11.328Z,28
2016-10-19T11:36:11.619Z,28
2016-10-19T11:37:11.609Z,28
2016-10-19T11:38:11.594Z,28
2016-10-19T11:39:11.290Z,28
2016-10-19T11:40:11.571Z,24
2016-10-19T11:41:10.918Z,24
2016-10-19T11:42:11.520Z,24
2016-10-19T11:43:11.518Z,28
2016-10-19T11:44:11.192Z,24
2016-10-19T11:45:11.487Z,20
2016-10-19T11:46:11.479Z,20
2016-10-19T11:47:11.445Z,20
2016-10-19T11:48:11.115Z,20
2016-10-19T11:49:10.784Z,20
2016-10-19T11:50:11.085Z,20
2016-10-19T11:51:11.383Z,24
2016-10-19T11:52:11.364Z,24
2016-10-19T11:53:11.036Z,24
2016-10-19T11:54:11.025Z,24
2016-10-19T11:55:11.320Z,20
2016-10-19T11:56:10.986Z,24
2016-10-19T11:57:11.313Z,24
2016-10-19T11:58:11.266Z,24
2016-10-19T11:59:10.943Z,24
2016-10-19T12:00:11.236Z,24
2016-10-19T12:01:10.596Z,24
2016-10-19T12:02:11.217Z,24
2016-10-19T12:03:11.193Z,24
2016-10-19T12:04:10.865Z,24
2016-10-19T12:05:10.891Z,24
2016-10-19T12:06:11.152Z,24
2016-10-19T12:07:11.132Z,24
2016-10-19T12:08:11.121Z,24
2016-10-19T12:09:11.116Z,24
2016-10-19T12:10:11.086Z,28
2016-10-19T12:11:10.749Z,24
2016-10-19T12:12:11.092Z,28
2016-10-19T12:13:10.712Z,24
2016-10-19T12:14:11.036Z,24
2016-10-19T12:15:11.040Z,24
2016-10-19T12:16:10.991Z,24
2016-10-19T12:17:10.979Z,24
2016-10-19T12:18:10.964Z,24
2016-10-19T12:19:10.937Z,24
2016-10-19T12:20:10.298Z,24
2016-10-19T12:21:10.914Z,20
2016-10-19T12:22:10.899Z,20
2016-10-19T12:23:10.876Z,20
2016-10-19T12:24:10.555Z,24
2016-10-19T12:25:10.533Z,24
2016-10-19T12:26:10.519Z,20
2016-10-19T12:27:11.139Z,24
2016-10-19T12:28:10.809Z,20
2016-10-19T12:29:10.791Z,24
2016-10-19T12:30:10.761Z,24
2016-10-19T12:31:10.757Z,24
2016-10-19T12:32:10.420Z,24
2016-10-19T12:33:10.739Z,24
2016-10-19T12:34:10.418Z,24
2016-10-19T12:35:10.375Z,24
2016-10-19T12:36:10.350Z,24
2016-10-19T12:37:10.660Z,24
2016-10-19T12:38:10.636Z,24
2016-10-19T12:39:10.623Z,24
2016-10-19T12:40:10.294Z,24
2016-10-19T12:41:10.590Z,24
2016-10-19T12:42:10.261Z,20
2016-10-19T12:43:10.563Z,24
2016-10-19T12:44:10.554Z,20
2016-10-19T12:45:10.527Z,24
2016-10-19T12:46:10.522Z,24
2016-10-19T12:47:10.185Z,24
2016-10-19T12:48:10.491Z,24
2016-10-19T12:49:10.474Z,24
2016-10-19T12:50:10.139Z,24
2016-10-19T12:51:10.444Z,24
2016-10-19T12:52:10.117Z,24
2016-10-19T12:53:10.121Z,24
2016-10-19T12:54:10.407Z,20
2016-10-19T12:55:10.388Z,24
2016-10-19T12:56:10.373Z,24
2016-10-19T12:57:10.344Z,24
2016-10-19T12:58:10.363Z,24
2016-10-19T12:59:09.678Z,24
2016-10-19T13:00:10.300Z,24
2016-10-19T13:01:10.284Z,24
2016-10-19T13:02:10.258Z,28
2016-10-19T13:03:09.941Z,24
2016-10-19T13:04:10.228Z,24
2016-10-19T13:05:09.897Z,24
2016-10-19T13:06:10.201Z,28
2016-10-19T13:07:09.561Z,24
2016-10-19T13:08:09.849Z,24
2016-10-19T13:09:10.157Z,28
2016-10-19T13:10:10.146Z,28
2016-10-19T13:11:09.813Z,28
2016-10-19T13:12:09.849Z,28
2016-10-19T13:13:09.833Z,24
2016-10-19T13:14:09.769Z,24
2016-10-19T13:15:09.742Z,28
2016-10-19T13:16:09.731Z,24
2016-10-19T13:17:10.030Z,24
2016-10-19T13:18:10.015Z,24
2016-10-19T13:19:09.998Z,24
2016-10-19T13:20:09.354Z,24
2016-10-19T13:21:09.661Z,24
2016-10-19T13:22:09.643Z,24
2016-10-19T13:23:09.946Z,24
2016-10-19T13:24:09.609Z,24
2016-10-19T13:25:09.921Z,24
2016-10-19T13:26:09.575Z,24
2016-10-19T13:27:09.258Z,24
2016-10-19T13:28:09.863Z,24
2016-10-19T13:29:09.530Z,24
2016-10-19T13:30:09.515Z,28
2016-10-19T13:31:09.506Z,28
2016-10-19T13:32:09.808Z,28
2016-10-19T13:33:09.786Z,28
2016-10-19T13:34:09.765Z,28
2016-10-19T13:35:09.749Z,28
2016-10-19T13:36:09.736Z,32
2016-10-19T13:37:09.409Z,28
2016-10-19T13:38:09.706Z,32
2016-10-19T13:39:09.368Z,32
2016-10-19T13:40:09.677Z,36
2016-10-19T13:41:09.649Z,32
2016-10-19T13:42:09.645Z,32
2016-10-19T13:43:09.623Z,32
2016-10-19T13:44:08.990Z,28
2016-10-19T13:45:09.273Z,28
2016-10-19T13:46:09.578Z,32
2016-10-19T13:47:09.566Z,32
2016-10-19T13:48:09.228Z,28
2016-10-19T13:49:09.528Z,24
2016-10-19T13:50:09.513Z,24
2016-10-19T13:51:09.494Z,28
2016-10-19T13:52:09.491Z,24
2016-10-19T13:53:09.150Z,24
2016-10-19T13:54:09.461Z,24
2016-10-19T13:55:09.114Z,28
2016-10-19T13:56:09.419Z,28
2016-10-19T13:57:09.087Z,24
2016-10-19T13:58:09.397Z,28
2016-10-19T13:59:09.057Z,24
2016-10-19T14:00:09.354Z,24
2016-10-19T14:01:09.381Z,24
2016-10-19T14:02:08.698Z,24
2016-10-19T14:03:09.319Z,24
2016-10-19T14:04:09.298Z,24
2016-10-19T14:05:08.653Z,24
2016-10-19T14:06:08.956Z,24
2016-10-19T14:07:09.251Z,24
2016-10-19T14:08:09.234Z,28
2016-10-19T14:09:09.231Z,28
2016-10-19T14:10:09.201Z,24
2016-10-19T14:11:08.875Z,24
2016-10-19T14:12:09.170Z,24
2016-10-19T14:13:09.150Z,28
2016-10-19T14:14:09.157Z,28
2016-10-19T14:15:09.139Z,28
2016-10-19T14:16:09.108Z,28
2016-10-19T14:17:08.776Z,24
2016-10-19T14:18:09.087Z,28
2016-10-19T14:19:09.071Z,28
2016-10-19T14:20:09.235Z,24
2016-10-19T14:21:09.033Z,28
2016-10-19T14:22:08.706Z,28
2016-10-19T14:23:09.027Z,24
2016-10-19T14:24:08.994Z,28
2016-10-19T14:25:08.966Z,24
2016-10-19T14:26:08.337Z,24
2016-10-19T14:27:08.935Z,28
2016-10-19T14:28:08.291Z,28
2016-10-19T14:29:08.915Z,24